Time;durP1;ratioP1;P1;durP2;ratioP2;P2;SDS_P1;SDS_P2;PMS_P1;PMS_P2;Temp;Humidity;BMP_temperature;BMP_pressure;BME280_temperature;BME280_humidity;BME280_pressure;Samples;Min_cycle;Max_cycle;Signal;HPM_P1;HPM_P2
2021/05/06 00:34:13;;;;;;;18.35;3.08;;;;;;;;;;4994361;28;20101;-80
2021/05/06 00:36:40;;;;;;;20.92;2.60;;;;;;;;;;4992758;28;20387;-80
2021/05/06 00:39:14;;;;;;;16.30;3.33;;;;;;;;;;4992887;28;20062;-79
2021/05/06 00:44:34;;;;;;;18.83;2.60;;;;;;;;;;4994123;28;20089;-79
2021/05/06 01:03:15;;;;;;;26.23;3.67;;;;;;;;;;4973560;28;20114;-79
2021/05/06 01:05:47;;;;;;;16.88;2.88;;;;;;;;;;4974848;28;20054;-81
2021/05/06 01:08:23;;;;;;;16.92;4.80;;;;;;;;;;4976273;28;20550;-80
2021/05/06 01:11:19;;;;;;;14.77;3.03;;;;;;;;;;4993168;28;20081;-80
2021/05/06 01:13:39;;;;;;;16.77;2.53;;;;;;;;;;4991980;28;20145;-80
2021/05/06 01:16:06;;;;;;;25.15;3.38;;;;;;;;;;4980440;28;20046;-80
2021/05/06 01:18:32;;;;;;;23.98;2.65;;;;;;;;;;4975815;28;20058;-80
2021/05/06 01:21:02;;;;;;;14.85;2.60;;;;;;;;;;4987384;28;20078;-81
2021/05/06 01:23:30;;;;;;;13.55;2.38;;;;;;;;;;4970629;28;20104;-81
2021/05/06 01:26:00;;;;;;;30.70;3.13;;;;;;;;;;4983610;28;20105;-80
2021/05/06 01:28:31;;;;;;;16.80;2.53;;;;;;;;;;4991982;28;20125;-80
2021/05/06 01:31:09;;;;;;;22.38;3.65;;;;;;;;;;4992896;28;20112;-80
2021/05/06 01:36:24;;;;;;;19.27;2.95;;;;;;;;;;4992870;28;20065;-80
2021/05/06 01:39:16;;;;;;;16.83;2.75;;;;;;;;;;4982616;28;20078;-80
2021/05/06 01:41:49;;;;;;;19.35;3.20;;;;;;;;;;4976333;28;20038;-80
2021/05/06 01:44:37;;;;;;;18.35;2.80;;;;;;;;;;4992252;28;20770;-80
2021/05/06 01:57:37;;;;;;;18.80;3.30;;;;;;;;;;4989320;28;20083;-80
2021/05/06 02:00:08;;;;;;;16.30;2.75;;;;;;;;;;4976050;28;20078;-79
2021/05/06 02:02:35;;;;;;;20.95;4.38;;;;;;;;;;4973298;28;20110;-80
2021/05/06 02:05:03;;;;;;;16.50;2.50;;;;;;;;;;4964302;28;20701;-79
2021/05/06 02:07:29;;;;;;;15.50;3.13;;;;;;;;;;4954985;28;20134;-79
2021/05/06 02:09:56;;;;;;;13.95;2.53;;;;;;;;;;4972816;28;20109;-79
2021/05/06 02:12:23;;;;;;;15.77;2.88;;;;;;;;;;4985165;28;20129;-79
2021/05/06 02:14:57;;;;;;;13.68;2.78;;;;;;;;;;4991926;28;20078;-80
2021/05/06 02:17:24;;;;;;;23.08;3.10;;;;;;;;;;4972788;28;20078;-80
2021/05/06 02:19:51;;;;;;;12.02;2.88;;;;;;;;;;4988600;28;20054;-79
2021/05/06 02:22:19;;;;;;;23.88;3.75;;;;;;;;;;4979973;28;20138;-79
2021/05/06 02:24:46;;;;;;;19.10;2.80;;;;;;;;;;4979581;28;20534;-79
2021/05/06 02:27:13;;;;;;;22.00;4.22;;;;;;;;;;4983789;28;20503;-80
2021/05/06 02:29:41;;;;;;;16.10;2.53;;;;;;;;;;4973087;28;20058;-80
2021/05/06 02:32:12;;;;;;;25.38;2.67;;;;;;;;;;4984433;28;20448;-80
2021/05/06 02:34:40;;;;;;;25.02;2.67;;;;;;;;;;4991998;28;20050;-79
2021/05/06 02:37:08;;;;;;;13.52;2.42;;;;;;;;;;4992156;28;20101;-79
2021/05/06 02:39:34;;;;;;;25.48;3.42;;;;;;;;;;4991638;28;20133;-80
2021/05/06 02:42:01;;;;;;;14.43;2.33;;;;;;;;;;4992318;28;20517;-80
2021/05/06 02:44:44;;;;;;;19.55;2.45;;;;;;;;;;4986293;28;20081;-80
2021/05/06 02:47:11;;;;;;;19.25;2.58;;;;;;;;;;4983175;28;20053;-80
2021/05/06 02:49:43;;;;;;;23.25;3.13;;;;;;;;;;4982818;28;20122;-80
2021/05/06 02:52:21;;;;;;;15.45;2.35;;;;;;;;;;4983861;28;20133;-79
2021/05/06 02:54:55;;;;;;;20.40;3.30;;;;;;;;;;4987809;28;20050;-80
2021/05/06 02:57:38;;;;;;;25.23;2.95;;;;;;;;;;4991131;28;20392;-80
2021/05/06 03:02:55;;;;;;;17.55;2.47;;;;;;;;;;4979425;28;20046;-79
2021/05/06 03:05:23;;;;;;;15.75;2.75;;;;;;;;;;4984555;28;20094;-79
2021/05/06 03:08:37;;;;;;;13.48;2.40;;;;;;;;;;4976221;28;20082;-79
2021/05/06 03:10:47;;;;;;;18.35;2.80;;;;;;;;;;4981681;28;20081;-80
2021/05/06 03:22:40;;;;;;;22.83;2.42;;;;;;;;;;4983893;28;20005;-80
2021/05/06 03:24:33;;;;;;;22.80;2.28;;;;;;;;;;4978994;28;20763;-79
2021/05/06 03:27:01;;;;;;;18.88;3.58;;;;;;;;;;4975995;28;20133;-80
2021/05/06 03:29:35;;;;;;;19.15;2.53;;;;;;;;;;4991662;28;20101;-79
2021/05/06 03:32:22;;;;;;;17.30;4.40;;;;;;;;;;4976831;28;20466;-79
2021/05/06 03:35:02;;;;;;;16.23;2.30;;;;;;;;;;4974605;28;20431;-79
2021/05/06 03:43:17;;;;;;;14.52;2.38;;;;;;;;;;4993982;28;20447;-79
2021/05/06 04:17:08;;;;;;;15.35;2.97;;;;;;;;;;4981075;28;20061;-79
2021/05/06 04:22:22;;;;;;;16.95;3.45;;;;;;;;;;4988593;28;20050;-79
2021/05/06 04:28:36;;;;;;;12.80;2.72;;;;;;;;;;4985820;28;20133;-79
2021/05/06 04:36:04;;;;;;;;;;;;;;;;;;4993787;28;20054;-80
2021/05/06 04:38:31;;;;;;;17.73;2.65;;;;;;;;;;4993405;28;20020;-80
2021/05/06 04:50:17;;;;;;;9.38;2.22;;;;;;;;;;4982711;28;20506;-79
2021/05/06 04:55:13;;;;;;;19.70;2.97;;;;;;;;;;4974372;28;20558;-81
2021/05/06 05:06:17;;;;;;;19.33;2.97;;;;;;;;;;4973293;28;20492;-82
2021/05/06 05:09:13;;;;;;;20.17;3.58;;;;;;;;;;4986625;28;20757;-84
2021/05/06 05:11:47;;;;;;;15.02;2.85;;;;;;;;;;4988681;28;20046;-84
2021/05/06 05:14:35;;;;;;;13.10;2.42;;;;;;;;;;4969980;28;20088;-84
2021/05/06 05:25:04;;;;;;;;;;;;;;;;;;4981573;28;20051;-83
2021/05/06 05:27:33;;;;;;;11.38;1.98;;;;;;;;;;4984661;28;20632;-81
2021/05/06 05:29:59;;;;;;;26.75;2.40;;;;;;;;;;4990932;28;20066;-80
2021/05/06 05:32:26;;;;;;;15.05;2.55;;;;;;;;;;4983973;28;20043;-81
2021/05/06 05:34:58;;;;;;;22.42;2.42;;;;;;;;;;4971370;28;20050;-79
2021/05/06 05:37:29;;;;;;;15.20;2.33;;;;;;;;;;4984041;28;20050;-83
2021/05/06 05:45:57;;;;;;;22.15;3.00;;;;;;;;;;4934612;29;20067;-81
2021/05/06 05:56:40;;;;;;;11.57;2.78;;;;;;;;;;4981750;28;20081;-82
2021/05/06 05:59:07;;;;;;;23.90;2.75;;;;;;;;;;4979498;28;20176;-81
2021/05/06 06:01:33;;;;;;;11.88;1.95;;;;;;;;;;4980620;28;20145;-82
2021/05/06 06:04:03;;;;;;;14.70;2.58;;;;;;;;;;4961414;28;20492;-81
2021/05/06 06:06:33;;;;;;;19.90;2.70;;;;;;;;;;4979086;28;20062;-81
2021/05/06 06:09:00;;;;;;;12.35;2.13;;;;;;;;;;4962960;28;20054;-82
2021/05/06 06:11:31;;;;;;;18.67;2.65;;;;;;;;;;4978847;28;20062;-83
2021/05/06 06:14:04;;;;;;;20.45;3.03;;;;;;;;;;4988825;28;20082;-82
2021/05/06 06:16:32;;;;;;;16.35;2.53;;;;;;;;;;4980375;28;20109;-82
2021/05/06 06:19:00;;;;;;;9.05;2.60;;;;;;;;;;4980668;28;20482;-84
2021/05/06 06:24:05;;;;;;;13.60;2.63;;;;;;;;;;4972924;28;20051;-84
2021/05/06 06:26:32;;;;;;;14.48;3.25;;;;;;;;;;4972968;28;20055;-84
2021/05/06 06:29:06;;;;;;;18.58;2.38;;;;;;;;;;4988565;28;20055;-83
2021/05/06 06:31:53;;;;;;;13.90;2.38;;;;;;;;;;4986372;28;20852;-82
2021/05/06 06:34:20;;;;;;;11.02;1.92;;;;;;;;;;4979526;28;20069;-82
2021/05/06 06:36:47;;;;;;;12.82;2.58;;;;;;;;;;4975639;28;20074;-83
2021/05/06 06:39:16;;;;;;;13.55;2.33;;;;;;;;;;4963687;28;20062;-84
2021/05/06 06:41:45;;;;;;;10.27;2.22;;;;;;;;;;4981419;28;20138;-83
2021/05/06 06:44:13;;;;;;;21.27;2.47;;;;;;;;;;5006207;28;20724;-82
2021/05/06 06:46:42;;;;;;;15.25;2.15;;;;;;;;;;4962545;28;20120;-82
2021/05/06 06:49:10;;;;;;;7.82;1.75;;;;;;;;;;4982216;28;20581;-82
2021/05/06 06:51:37;;;;;;;15.40;3.42;;;;;;;;;;4964763;28;20101;-82
2021/05/06 06:54:07;;;;;;;15.45;2.33;;;;;;;;;;4979238;28;20554;-82
2021/05/06 06:56:35;;;;;;;12.23;2.22;;;;;;;;;;4969046;28;20050;-84
2021/05/06 06:59:02;;;;;;;14.13;2.50;;;;;;;;;;4994555;28;20054;-83
2021/05/06 07:01:29;;;;;;;10.63;1.92;;;;;;;;;;4981552;28;20466;-83
2021/05/06 07:03:55;;;;;;;16.73;2.72;;;;;;;;;;4987618;28;20046;-82
2021/05/06 07:06:23;;;;;;;19.60;3.15;;;;;;;;;;4980213;28;20086;-83
2021/05/06 07:08:50;;;;;;;11.15;2.15;;;;;;;;;;4980143;28;20074;-84
2021/05/06 07:11:17;;;;;;;16.63;2.83;;;;;;;;;;4974849;28;20086;-82
2021/05/06 07:13:44;;;;;;;12.88;2.90;;;;;;;;;;4961147;28;20086;-82
2021/05/06 07:16:12;;;;;;;15.35;2.40;;;;;;;;;;4982745;28;20078;-83
2021/05/06 07:18:48;;;;;;;14.80;3.17;;;;;;;;;;4984288;28;20112;-84
2021/05/06 07:21:16;;;;;;;12.40;1.83;;;;;;;;;;4980553;28;20096;-82
2021/05/06 07:23:43;;;;;;;8.80;2.33;;;;;;;;;;4974641;28;20081;-82
2021/05/06 07:26:12;;;;;;;14.48;2.33;;;;;;;;;;4988046;28;20045;-82
2021/05/06 07:28:43;;;;;;;14.15;2.55;;;;;;;;;;4987499;28;20050;-82
2021/05/06 07:31:14;;;;;;;11.55;2.00;;;;;;;;;;4982443;28;20466;-83
2021/05/06 07:33:46;;;;;;;15.10;2.67;;;;;;;;;;4979092;28;20057;-83
2021/05/06 07:36:18;;;;;;;6.63;1.77;;;;;;;;;;4982914;28;20124;-84
2021/05/06 07:38:48;;;;;;;13.40;2.47;;;;;;;;;;4974860;28;20054;-84
2021/05/06 07:41:19;;;;;;;13.27;2.42;;;;;;;;;;4975512;28;20073;-85
2021/05/06 07:43:48;;;;;;;12.40;2.10;;;;;;;;;;4974881;28;20157;-85
2021/05/06 07:46:21;;;;;;;15.93;2.10;;;;;;;;;;4978438;28;20678;-86
2021/05/06 07:48:52;;;;;;;14.18;3.10;;;;;;;;;;4977260;28;20109;-86
2021/05/06 07:51:24;;;;;;;10.48;2.60;;;;;;;;;;4985307;28;20046;-87
2021/05/06 07:54:07;;;;;;;10.48;2.30;;;;;;;;;;4968834;28;20061;-86
2021/05/06 07:56:41;;;;;;;17.20;2.53;;;;;;;;;;4976748;28;20185;-85
2021/05/06 07:59:12;;;;;;;15.02;2.20;;;;;;;;;;4980473;28;20117;-86
2021/05/06 08:01:38;;;;;;;13.18;1.95;;;;;;;;;;4982396;28;20122;-84
2021/05/06 08:04:06;;;;;;;12.95;3.13;;;;;;;;;;4977191;28;20129;-84
2021/05/06 08:06:34;;;;;;;12.48;2.38;;;;;;;;;;4986177;28;20073;-84
2021/05/06 08:09:01;;;;;;;14.13;2.10;;;;;;;;;;4976275;28;20075;-83
2021/05/06 08:11:28;;;;;;;18.30;2.45;;;;;;;;;;4974984;28;20098;-85
2021/05/06 08:13:55;;;;;;;11.38;2.65;;;;;;;;;;4957398;28;20157;-85
2021/05/06 08:16:22;;;;;;;12.02;1.90;;;;;;;;;;4965080;28;20049;-84
2021/05/06 08:18:48;;;;;;;16.13;3.25;;;;;;;;;;4977756;28;20149;-85
2021/05/06 08:21:18;;;;;;;10.07;2.10;;;;;;;;;;4976195;28;20105;-85
2021/05/06 08:23:45;;;;;;;14.32;2.55;;;;;;;;;;4986313;28;20825;-84
2021/05/06 08:26:12;;;;;;;9.00;1.70;;;;;;;;;;4964166;28;20050;-83
2021/05/06 08:28:49;;;;;;;15.40;2.40;;;;;;;;;;4983059;28;20047;-84
2021/05/06 08:31:18;;;;;;;12.95;2.30;;;;;;;;;;4982958;28;20514;-85
2021/05/06 08:33:45;;;;;;;12.30;2.05;;;;;;;;;;4997529;28;20078;-84
2021/05/06 08:36:12;;;;;;;15.65;2.75;;;;;;;;;;4976222;28;20058;-82
2021/05/06 08:38:39;;;;;;;11.23;1.80;;;;;;;;;;4984519;28;20156;-84
2021/05/06 08:41:08;;;;;;;8.75;2.58;;;;;;;;;;4993255;28;20085;-82
2021/05/06 08:43:37;;;;;;;11.77;1.83;;;;;;;;;;4980805;28;20712;-81
2021/05/06 08:46:04;;;;;;;12.25;1.92;;;;;;;;;;4985207;28;20042;-83
2021/05/06 08:48:35;;;;;;;22.27;2.20;;;;;;;;;;4992692;28;20058;-83
2021/05/06 08:51:05;;;;;;;11.88;1.90;;;;;;;;;;4979191;28;20074;-83
2021/05/06 08:53:32;;;;;;;14.75;2.35;;;;;;;;;;4965509;28;20093;-83
2021/05/06 08:55:59;;;;;;;14.95;2.97;;;;;;;;;;4978605;28;20054;-85
2021/05/06 08:58:31;;;;;;;12.80;1.80;;;;;;;;;;4957891;28;20043;-82
2021/05/06 09:00:58;;;;;;;10.70;2.25;;;;;;;;;;4981963;28;20146;-85
2021/05/06 09:03:24;;;;;;;12.80;2.25;;;;;;;;;;4980004;28;20669;-82
2021/05/06 09:06:11;;;;;;;7.57;2.03;;;;;;;;;;4965776;28;20051;-84
2021/05/06 09:08:39;;;;;;;5.32;1.60;;;;;;;;;;4981482;28;20480;-84
2021/05/06 09:11:08;;;;;;;11.85;2.03;;;;;;;;;;4978623;28;20112;-84
2021/05/06 09:13:35;;;;;;;8.05;1.90;;;;;;;;;;4975552;28;20050;-84
2021/05/06 09:16:04;;;;;;;6.65;1.55;;;;;;;;;;4970437;28;20062;-84
2021/05/06 09:18:59;;;;;;;10.10;1.80;;;;;;;;;;4975533;28;20078;-84
2021/05/06 09:21:27;;;;;;;9.57;2.50;;;;;;;;;;4986243;28;20047;-84
2021/05/06 09:24:16;;;;;;;12.43;1.88;;;;;;;;;;4955561;28;20101;-83
2021/05/06 09:26:42;;;;;;;10.38;2.42;;;;;;;;;;4971505;28;20106;-83
2021/05/06 09:29:11;;;;;;;5.90;1.63;;;;;;;;;;4972536;28;20117;-84
2021/05/06 09:31:40;;;;;;;10.32;1.90;;;;;;;;;;4975313;28;20050;-83
2021/05/06 09:34:08;;;;;;;8.32;2.17;;;;;;;;;;4987892;28;20046;-83
2021/05/06 09:36:44;;;;;;;15.60;2.55;;;;;;;;;;4980353;28;20089;-84
2021/05/06 09:39:14;;;;;;;6.82;2.10;;;;;;;;;;4962458;28;20053;-85
2021/05/06 09:41:41;;;;;;;9.20;1.88;;;;;;;;;;4972232;28;20145;-83
2021/05/06 09:47:37;;;;;;;9.30;1.95;;;;;;;;;;4977649;28;20094;-84
2021/05/06 09:50:04;;;;;;;7.10;1.55;;;;;;;;;;4985746;28;20476;-84
2021/05/06 09:52:51;;;;;;;8.68;1.88;;;;;;;;;;4985590;28;20050;-82
2021/05/06 09:55:19;;;;;;;14.18;2.17;;;;;;;;;;4978908;28;20042;-82
2021/05/06 09:57:45;;;;;;;7.43;2.15;;;;;;;;;;4971891;28;20081;-83
2021/05/06 10:00:15;;;;;;;12.52;2.08;;;;;;;;;;4976916;28;20109;-82
2021/05/06 10:02:43;;;;;;;8.60;1.70;;;;;;;;;;4985464;28;20100;-83
2021/05/06 10:05:36;;;;;;;8.50;1.88;;;;;;;;;;4985765;28;20098;-83
2021/05/06 10:08:03;;;;;;;7.78;1.95;;;;;;;;;;4972547;28;20095;-81
2021/05/06 10:10:31;;;;;;;8.38;1.83;;;;;;;;;;4982588;28;20411;-82
2021/05/06 10:13:00;;;;;;;12.52;3.38;;;;;;;;;;4983254;28;20054;-83
2021/05/06 10:15:28;;;;;;;6.63;1.73;;;;;;;;;;4978527;28;20046;-81
2021/05/06 10:17:56;;;;;;;5.97;1.40;;;;;;;;;;4978225;28;20097;-82
2021/05/06 10:20:25;;;;;;;4.50;1.23;;;;;;;;;;4977669;28;20074;-82
2021/05/06 10:22:56;;;;;;;11.65;1.85;;;;;;;;;;4976486;28;20081;-84
2021/05/06 10:25:26;;;;;;;9.13;1.85;;;;;;;;;;4979489;28;20113;-82
2021/05/06 10:27:54;;;;;;;7.03;1.42;;;;;;;;;;4965274;28;20050;-85
2021/05/06 10:30:22;;;;;;;9.23;1.98;;;;;;;;;;4963173;28;20069;-81
2021/05/06 10:32:49;;;;;;;11.68;1.60;;;;;;;;;;4977367;28;20050;-82
2021/05/06 10:35:21;;;;;;;5.78;1.92;;;;;;;;;;4977352;28;20047;-82
2021/05/06 10:37:59;;;;;;;6.78;1.60;;;;;;;;;;4981805;28;20145;-83
2021/05/06 10:40:26;;;;;;;6.80;1.73;;;;;;;;;;4985057;28;20073;-86
2021/05/06 10:42:54;;;;;;;4.47;1.60;;;;;;;;;;4983888;28;20058;-83
2021/05/06 10:45:21;;;;;;;7.60;1.90;;;;;;;;;;4980960;28;20042;-82
2021/05/06 10:47:53;;;;;;;9.48;1.90;;;;;;;;;;4977625;28;20082;-82
2021/05/06 10:50:34;;;;;;;10.68;1.58;;;;;;;;;;4976186;28;20046;-81
2021/05/06 10:53:01;;;;;;;6.00;2.00;;;;;;;;;;4980136;28;20553;-81
2021/05/06 10:55:53;;;;;;;7.30;1.80;;;;;;;;;;4981348;28;20046;-83
2021/05/06 11:01:02;;;;;;;6.68;1.83;;;;;;;;;;4979809;28;20500;-83
2021/05/06 11:03:29;;;;;;;8.52;1.88;;;;;;;;;;4966145;28;20054;-84
2021/05/06 11:06:01;;;;;;;7.05;1.88;;;;;;;;;;4960818;28;20129;-84
2021/05/06 11:08:35;;;;;;;8.43;2.03;;;;;;;;;;4985588;28;20149;-84
2021/05/06 11:11:06;;;;;;;7.32;2.22;;;;;;;;;;4966079;28;20054;-83
2021/05/06 11:13:52;;;;;;;8.70;2.10;;;;;;;;;;4983979;28;20073;-83
2021/05/06 11:16:19;;;;;;;9.10;2.00;;;;;;;;;;4985395;28;20078;-83
2021/05/06 11:18:51;;;;;;;13.93;2.40;;;;;;;;;;4985331;28;20055;-84
2021/05/06 11:21:30;;;;;;;9.70;1.92;;;;;;;;;;4985853;28;20110;-84
2021/05/06 11:24:13;;;;;;;7.07;2.13;;;;;;;;;;4963428;28;20054;-84
2021/05/06 11:27:23;;;;;;;6.60;1.88;;;;;;;;;;4977706;28;20124;-83
2021/05/06 11:29:50;;;;;;;6.15;1.30;;;;;;;;;;4984175;28;20197;-84
2021/05/06 11:32:24;;;;;;;8.68;2.00;;;;;;;;;;4984714;28;20472;-84
2021/05/06 11:34:52;;;;;;;6.15;1.70;;;;;;;;;;4968686;28;20121;-83
2021/05/06 11:37:20;;;;;;;6.18;1.42;;;;;;;;;;4986551;28;20046;-84
2021/05/06 11:39:53;;;;;;;4.93;1.80;;;;;;;;;;4989010;28;20072;-84
2021/05/06 11:42:28;;;;;;;7.00;1.73;;;;;;;;;;4995501;28;20113;-83
2021/05/06 11:45:05;;;;;;;6.60;1.70;;;;;;;;;;4990012;28;20050;-85
2021/05/06 11:47:32;;;;;;;4.38;1.40;;;;;;;;;;4987773;28;21074;-80
2021/05/06 11:49:59;;;;;;;8.25;1.73;;;;;;;;;;4982596;28;20108;-81
2021/05/06 11:52:35;;;;;;;5.57;1.35;;;;;;;;;;4987552;28;20435;-83
2021/05/06 11:55:02;;;;;;;7.45;1.83;;;;;;;;;;4980869;28;20089;-83
2021/05/06 11:57:28;;;;;;;6.75;1.77;;;;;;;;;;4988371;28;20711;-83
2021/05/06 11:59:56;;;;;;;11.10;2.10;;;;;;;;;;4971405;28;20054;-81
2021/05/06 12:02:27;;;;;;;4.90;1.20;;;;;;;;;;4973698;28;20074;-82
2021/05/06 12:04:55;;;;;;;7.40;1.60;;;;;;;;;;4981667;28;20065;-82
2021/05/06 12:07:23;;;;;;;8.18;1.80;;;;;;;;;;4983283;28;20092;-81
2021/05/06 12:09:50;;;;;;;6.45;1.52;;;;;;;;;;4974545;28;20086;-81
2021/05/06 12:12:21;;;;;;;7.65;1.77;;;;;;;;;;4959981;28;20042;-82
2021/05/06 12:14:50;;;;;;;7.47;1.77;;;;;;;;;;4982888;28;20046;-80
2021/05/06 12:17:19;;;;;;;7.03;1.73;;;;;;;;;;4985073;28;20125;-84
2021/05/06 12:19:47;;;;;;;11.55;2.53;;;;;;;;;;4990822;28;20043;-84
2021/05/06 12:22:14;;;;;;;4.65;1.60;;;;;;;;;;4977335;28;20057;-85
2021/05/06 12:24:46;;;;;;;25.48;3.03;;;;;;;;;;4974496;28;20050;-83
2021/05/06 12:27:23;;;;;;;10.10;1.50;;;;;;;;;;4974299;28;20077;-85
2021/05/06 12:29:50;;;;;;;10.82;1.95;;;;;;;;;;4966544;28;20621;-84
2021/05/06 12:32:18;;;;;;;11.95;2.25;;;;;;;;;;4985826;28;20046;-82
2021/05/06 12:34:48;;;;;;;6.22;1.60;;;;;;;;;;5006068;28;20545;-81
2021/05/06 12:37:17;;;;;;;11.63;1.90;;;;;;;;;;4963368;28;20078;-80
2021/05/06 12:39:46;;;;;;;6.18;1.23;;;;;;;;;;4985744;28;20054;-80
2021/05/06 12:42:14;;;;;;;9.48;2.55;;;;;;;;;;4993541;28;20054;-79
2021/05/06 12:44:43;;;;;;;3.50;1.13;;;;;;;;;;4990925;28;20054;-80
2021/05/06 12:47:14;;;;;;;8.13;1.35;;;;;;;;;;4977750;28;20050;-82
2021/05/06 12:49:42;;;;;;;5.72;1.85;;;;;;;;;;4982693;28;20053;-83
2021/05/06 12:52:32;;;;;;;13.55;2.10;;;;;;;;;;4992443;28;20105;-82
2021/05/06 12:58:03;;;;;;;5.38;1.25;;;;;;;;;;4974526;28;20124;-85
2021/05/06 13:00:33;;;;;;;9.88;1.40;;;;;;;;;;4973399;28;20456;-85
2021/05/06 13:03:05;;;;;;;9.70;1.73;;;;;;;;;;4984577;28;20451;-83
2021/05/06 13:05:38;;;;;;;4.05;1.45;;;;;;;;;;4991166;28;20054;-82
2021/05/06 13:08:08;;;;;;;4.00;1.30;;;;;;;;;;4983260;28;20125;-82
2021/05/06 13:10:38;;;;;;;3.67;1.33;;;;;;;;;;4976677;28;20124;-81
2021/05/06 13:13:07;;;;;;;7.20;1.55;;;;;;;;;;4993362;28;20043;-82
2021/05/06 13:15:47;;;;;;;7.85;1.20;;;;;;;;;;4993199;28;20042;-83
2021/05/06 13:18:13;;;;;;;10.45;1.70;;;;;;;;;;4975423;28;20085;-82
2021/05/06 13:20:40;;;;;;;4.43;1.55;;;;;;;;;;4978044;28;20392;-87
2021/05/06 13:23:11;;;;;;;12.45;1.77;;;;;;;;;;4994219;28;20117;-83
2021/05/06 13:25:39;;;;;;;6.93;1.23;;;;;;;;;;4993360;28;20766;-83
2021/05/06 13:28:06;;;;;;;7.32;2.20;;;;;;;;;;4992966;28;20129;-84
2021/05/06 13:30:33;;;;;;;9.90;1.50;;;;;;;;;;4955709;28;20098;-83
2021/05/06 13:33:21;;;;;;;6.78;1.75;;;;;;;;;;4973525;28;20057;-84
2021/05/06 13:36:06;;;;;;;6.07;1.40;;;;;;;;;;4973791;28;20471;-84
2021/05/06 13:38:48;;;;;;;12.60;1.45;;;;;;;;;;4989609;28;20050;-86
2021/05/06 13:41:16;;;;;;;6.75;1.90;;;;;;;;;;4990437;28;20786;-85
2021/05/06 13:43:42;;;;;;;8.95;2.30;;;;;;;;;;4991528;28;20058;-87
2021/05/06 13:46:10;;;;;;;8.05;1.30;;;;;;;;;;4991651;28;20112;-85
2021/05/06 13:48:37;;;;;;;5.90;1.52;;;;;;;;;;4979582;28;20633;-87
2021/05/06 13:51:11;;;;;;;6.53;1.90;;;;;;;;;;4988901;28;20162;-85
2021/05/06 13:53:42;;;;;;;5.83;1.00;;;;;;;;;;4980405;28;20046;-86
2021/05/06 13:56:09;;;;;;;9.05;1.55;;;;;;;;;;4986144;28;20297;-84
2021/05/06 13:58:36;;;;;;;6.88;1.65;;;;;;;;;;4988402;28;20039;-87
2021/05/06 14:01:04;;;;;;;3.88;1.08;;;;;;;;;;4980746;28;20133;-87
2021/05/06 14:03:31;;;;;;;6.55;1.35;;;;;;;;;;4986754;28;20461;-86
2021/05/06 14:05:59;;;;;;;2.00;0.80;;;;;;;;;;4981327;28;20081;-85
2021/05/06 14:08:27;;;;;;;4.25;0.60;;;;;;;;;;4986804;28;20042;-86
2021/05/06 14:10:55;;;;;;;3.67;1.00;;;;;;;;;;4974399;28;20582;-87
2021/05/06 14:13:23;;;;;;;2.80;0.82;;;;;;;;;;4992292;28;20043;-86
2021/05/06 14:15:51;;;;;;;6.97;1.40;;;;;;;;;;4982758;28;20054;-85
2021/05/06 14:18:18;;;;;;;4.25;0.85;;;;;;;;;;4991508;28;20538;-86
2021/05/06 14:20:45;;;;;;;8.38;1.85;;;;;;;;;;4980145;28;20138;-86
2021/05/06 14:23:17;;;;;;;5.35;1.00;;;;;;;;;;4984344;28;20051;-89
2021/05/06 14:25:43;;;;;;;7.53;1.05;;;;;;;;;;4973529;28;20561;-85
2021/05/06 14:28:13;;;;;;;5.95;1.02;;;;;;;;;;4991309;28;20116;-85
2021/05/06 14:30:40;;;;;;;5.72;1.20;;;;;;;;;;4973724;28;20126;-86
2021/05/06 14:33:08;;;;;;;8.18;1.30;;;;;;;;;;5000105;28;20054;-86
2021/05/06 14:35:38;;;;;;;6.88;1.35;;;;;;;;;;4979212;28;20077;-85
2021/05/06 14:38:08;;;;;;;4.65;1.40;;;;;;;;;;4982055;28;20070;-85
2021/05/06 14:40:35;;;;;;;8.15;1.75;;;;;;;;;;4992741;28;20046;-86
2021/05/06 14:43:02;;;;;;;2.83;0.82;;;;;;;;;;4990998;28;20057;-83
2021/05/06 14:45:31;;;;;;;3.42;0.82;;;;;;;;;;4990412;28;20082;-85
2021/05/06 14:47:59;;;;;;;6.55;1.35;;;;;;;;;;4985378;28;20410;-87
2021/05/06 14:50:27;;;;;;;5.55;1.17;;;;;;;;;;4990619;28;20101;-83
2021/05/06 14:52:55;;;;;;;2.97;0.85;;;;;;;;;;4982054;28;20466;-84
2021/05/06 14:55:28;;;;;;;1.85;0.70;;;;;;;;;;4977188;28;20128;-83
2021/05/06 14:58:04;;;;;;;4.80;1.00;;;;;;;;;;4988521;28;20081;-83
2021/05/06 15:00:48;;;;;;;4.65;1.10;;;;;;;;;;4980022;28;20082;-83
2021/05/06 15:03:16;;;;;;;3.33;1.10;;;;;;;;;;4994071;28;20046;-83
2021/05/06 15:05:49;;;;;;;4.75;1.15;;;;;;;;;;4982569;28;20053;-83
2021/05/06 15:08:22;;;;;;;3.42;0.80;;;;;;;;;;4980905;28;20043;-81
2021/05/06 15:10:59;;;;;;;8.38;1.08;;;;;;;;;;4988644;28;20070;-82
2021/05/06 15:13:29;;;;;;;5.72;1.30;;;;;;;;;;4984996;28;20105;-83
2021/05/06 15:15:57;;;;;;;3.67;0.90;;;;;;;;;;4988241;28;20547;-82
2021/05/06 15:18:23;;;;;;;7.82;1.33;;;;;;;;;;4980248;28;20083;-84
2021/05/06 15:20:53;;;;;;;6.18;1.52;;;;;;;;;;4978244;28;20047;-84
2021/05/06 15:23:25;;;;;;;4.55;1.20;;;;;;;;;;4979997;28;20046;-81
2021/05/06 15:25:53;;;;;;;2.30;0.93;;;;;;;;;;4986284;28;20085;-82
2021/05/06 15:28:20;;;;;;;7.80;1.13;;;;;;;;;;4981649;28;20042;-82
2021/05/06 15:30:51;;;;;;;2.42;0.90;;;;;;;;;;4990206;28;20082;-81
2021/05/06 15:33:25;;;;;;;4.93;1.00;;;;;;;;;;4988438;28;20067;-81
2021/05/06 15:35:52;;;;;;;2.67;1.10;;;;;;;;;;4984911;28;20558;-81
2021/05/06 15:38:25;;;;;;;4.78;1.00;;;;;;;;;;4989753;28;20074;-81
2021/05/06 15:41:02;;;;;;;10.82;1.40;;;;;;;;;;4993211;28;20100;-82
2021/05/06 15:43:38;;;;;;;2.45;1.08;;;;;;;;;;4976341;28;20370;-82
2021/05/06 15:46:29;;;;;;;4.82;1.23;;;;;;;;;;4970335;28;20054;-83
2021/05/06 15:49:02;;;;;;;3.17;1.10;;;;;;;;;;4993769;28;20112;-83
2021/05/06 15:51:32;;;;;;;4.78;1.10;;;;;;;;;;4980462;28;20470;-84
2021/05/06 15:54:14;;;;;;;4.72;0.80;;;;;;;;;;4982131;28;20050;-84
2021/05/06 15:56:40;;;;;;;5.28;1.02;;;;;;;;;;4977985;28;20078;-85
2021/05/06 15:59:12;;;;;;;6.05;1.30;;;;;;;;;;4983929;28;20097;-85
2021/05/06 16:01:40;;;;;;;3.15;1.02;;;;;;;;;;4993690;28;20081;-85
2021/05/06 16:04:11;;;;;;;3.50;0.90;;;;;;;;;;4985904;28;20126;-83
2021/05/06 16:06:37;;;;;;;3.35;0.80;;;;;;;;;;4986597;28;20105;-81
2021/05/06 16:09:05;;;;;;;4.72;1.20;;;;;;;;;;4987192;28;20050;-81
2021/05/06 16:11:32;;;;;;;3.78;1.27;;;;;;;;;;4986840;28;20140;-81
2021/05/06 16:14:00;;;;;;;5.35;1.58;;;;;;;;;;4979984;28;20114;-81
2021/05/06 16:16:27;;;;;;;6.57;1.30;;;;;;;;;;4984146;28;20593;-82
2021/05/06 16:19:04;;;;;;;8.07;1.08;;;;;;;;;;4966327;28;20061;-81
2021/05/06 16:21:35;;;;;;;8.30;1.00;;;;;;;;;;4965668;28;20434;-82
2021/05/06 16:24:13;;;;;;;5.43;1.35;;;;;;;;;;4957843;28;20542;-83
2021/05/06 16:26:44;;;;;;;6.20;1.02;;;;;;;;;;4975267;28;20051;-83
2021/05/06 16:29:10;;;;;;;4.20;1.13;;;;;;;;;;4986558;28;20089;-82
2021/05/06 16:31:37;;;;;;;4.15;1.00;;;;;;;;;;5000247;28;20129;-87
2021/05/06 16:34:05;;;;;;;5.75;1.38;;;;;;;;;;4976768;28;20483;-87
2021/05/06 16:36:43;;;;;;;4.55;1.27;;;;;;;;;;4974253;28;20078;-84
2021/05/06 16:41:56;;;;;;;9.13;1.20;;;;;;;;;;4973600;28;20054;-81
2021/05/06 16:44:30;;;;;;;4.95;1.23;;;;;;;;;;4973655;28;20691;-81
2021/05/06 16:47:01;;;;;;;3.25;1.08;;;;;;;;;;4962325;28;20105;-81
2021/05/06 16:49:29;;;;;;;2.03;0.93;;;;;;;;;;4987933;28;20633;-81
2021/05/06 16:51:56;;;;;;;6.40;1.40;;;;;;;;;;4963923;28;20051;-81
2021/05/06 16:54:23;;;;;;;2.85;1.00;;;;;;;;;;4972652;28;20051;-81
2021/05/06 16:56:59;;;;;;;5.32;1.13;;;;;;;;;;4984939;28;20055;-81
2021/05/06 16:59:26;;;;;;;4.45;0.88;;;;;;;;;;4957093;28;20099;-82
2021/05/06 17:02:05;;;;;;;5.80;1.10;;;;;;;;;;4981932;28;20054;-81
2021/05/06 17:04:32;;;;;;;6.95;1.30;;;;;;;;;;4991961;28;20491;-81
2021/05/06 17:07:00;;;;;;;5.72;1.20;;;;;;;;;;4985855;28;20059;-81
2021/05/06 17:09:26;;;;;;;6.90;2.05;;;;;;;;;;4985289;28;20404;-81
2021/05/06 17:11:53;;;;;;;6.88;1.30;;;;;;;;;;4972905;28;20105;-82
2021/05/06 17:14:25;;;;;;;4.75;1.42;;;;;;;;;;4993456;28;20050;-81
2021/05/06 17:16:56;;;;;;;4.45;1.13;;;;;;;;;;4977505;28;20086;-82
2021/05/06 17:19:23;;;;;;;6.50;1.50;;;;;;;;;;4991316;28;20046;-82
2021/05/06 17:21:54;;;;;;;7.15;1.08;;;;;;;;;;4978379;28;20404;-80
2021/05/06 17:24:29;;;;;;;4.13;1.15;;;;;;;;;;4994239;28;20092;-83
2021/05/06 17:26:58;;;;;;;4.57;1.20;;;;;;;;;;4959304;28;20078;-84
2021/05/06 17:29:25;;;;;;;2.42;1.20;;;;;;;;;;4994312;28;20057;-83
2021/05/06 17:31:52;;;;;;;3.05;0.93;;;;;;;;;;5007460;28;20602;-83
2021/05/06 17:34:19;;;;;;;7.07;1.17;;;;;;;;;;4974495;28;20108;-82
2021/05/06 17:36:46;;;;;;;9.63;1.55;;;;;;;;;;4975343;28;20093;-83
2021/05/06 17:39:21;;;;;;;1.92;0.82;;;;;;;;;;4988616;28;20471;-84
2021/05/06 17:41:48;;;;;;;7.95;2.20;;;;;;;;;;4993180;28;20455;-83
2021/05/06 17:44:18;;;;;;;7.95;1.50;;;;;;;;;;4991848;28;20049;-83
2021/05/06 17:46:44;;;;;;;11.90;1.38;;;;;;;;;;4992126;28;20054;-83
2021/05/06 17:49:14;;;;;;;5.88;1.40;;;;;;;;;;4979517;28;20046;-83
2021/05/06 17:51:49;;;;;;;8.60;1.38;;;;;;;;;;4979050;28;20490;-83
2021/05/06 17:54:15;;;;;;;5.78;1.60;;;;;;;;;;4957431;28;20074;-83
2021/05/06 17:56:44;;;;;;;3.88;0.93;;;;;;;;;;4972472;28;20050;-84
2021/05/06 17:59:14;;;;;;;6.13;1.02;;;;;;;;;;4986083;28;20174;-83
2021/05/06 18:01:41;;;;;;;5.50;1.33;;;;;;;;;;4979708;28;20089;-84